Dededo, Guam
Current Conditions -  °F | °C
As of 2:54 AM on Friday 28 Nov 2014 (Local Time) from PGUM Reporting Station
Clear Clear  
Wind Chill: 81°   Ceiling: Unl
Heat Index: 87°   Visibility: 10mi
Dew Point: 76°   Wind: 14mph
Humidity: 85%   Direction: 60°ENE
Pressure: 29.84"   Gusts: NA
Location:  13.51°N, 144.84°E
Report Text: PGUM 271654Z 06012KT 10SM CLR 27/24 A2984 RMK AO2 RAB02E36 SLP095 T02720244 PNO $
Loading
Personal Weather Stations






























Interactive Weather Map New forecast layout! Learn more

10-Day Weather Forecast

Advertisements
Track Severe Weather on mobile